Terminal Aerodrome Forecast
Issued by NWS

Home | Current Version | Previous Version | Text Only | Print | Product List | Glossary On
Versions: 1 2 3 4 5 6 7 8 9 10 11 12 13 14 15 16 17 18 19 20 21 22 23
000
FTUS46 KSEW 270535
TAFHQM
TAF
KHQM 270535Z 2706/2806 17007KT P6SM VCSH SCT018 BKN035 OVC050
      TEMPO 2706/2710 4SM -SHRA BR SCT018 OVC028
     FM271000 17007KT P6SM VCSH BKN022 OVC040
      TEMPO 2710/2714 -SHRA
     FM271400 19008KT P6SM -SHRA OVC022
     FM272000 22013KT P6SM -SHRA BKN028 OVC050
     FM280300 19007KT P6SM VCSH BKN035 BKN050 PROB30 2803/2806
      -SHRA=

USA.gov is the U.S. government's official web portal to all federal, state and local government web resources and services.